Cap San Raphael — D5FJ2 — position and weather

sailwx.info

Track history (hours):
 
Tides and Currents Weather Stations Pressure Air Temp Water Temp Dewpoint Dewpoint Depression Visibility Wind Speed Wind Dir Waves Ship Positions

Cap San Raphael

Last reported at 2018-Feb-25 05:28 UTC. Time now 2018-Feb-25 05:55 UTC.
Position N 36°09' W 005°26'.

Length 333 m; draft 13 m.

Type: Ship (hazmat cat A). MMSI: 636092548.

Date/timePositionNaut miles runAvg speedWind from/ knotsBaromVisibWave heightAir tempDewpointWater temp
2018-Feb-25 05:28N 36°09' W 005°26'0 0.0
2018-Feb-25 04:58N 36°09' W 005°26'0 0.0
2018-Feb-25 04:28N 36°09' W 005°26'0 0.0
2018-Feb-25 03:58N 36°09' W 005°26'0 0.0
2018-Feb-25 03:28N 36°09' W 005°26'0 0.0
2018-Feb-25 02:58N 36°09' W 005°26'0 0.0
2018-Feb-25 02:25N 36°09' W 005°26'0 0.0
2018-Feb-25 01:58N 36°09' W 005°26'0 0.0
2018-Feb-25 01:28N 36°09' W 005°26'0 0.0
2018-Feb-25 00:58N 36°09' W 005°26'0 0.0
2018-Feb-25 00:28N 36°09' W 005°26'0 0.0
2018-Feb-24 23:58N 36°09' W 005°26'0 0.0
2018-Feb-24 23:25N 36°09' W 005°26'0 0.0
2018-Feb-24 22:58N 36°09' W 005°26'0 0.0
2018-Feb-24 22:28N 36°09' W 005°26'0 0.0
2018-Feb-24 21:58N 36°09' W 005°26'0 0.0
2018-Feb-24 21:28N 36°09' W 005°26'0 0.0
2018-Feb-24 20:58N 36°09' W 005°26'0 0.0
2018-Feb-24 20:28N 36°09' W 005°26'0 0.0
2018-Feb-24 19:58N 36°09' W 005°26'0 0.0
2018-Feb-24 19:28N 36°09' W 005°26'0 0.0
2018-Feb-24 18:58N 36°09' W 005°26'0 0.0
2018-Feb-24 18:28N 36°09' W 005°26'0 0.0
2018-Feb-24 17:58N 36°09' W 005°26'0 0.0
2018-Feb-24 17:28N 36°09' W 005°26'0 0.0
2018-Feb-24 16:58N 36°09' W 005°26'0 0.0
2018-Feb-24 16:28N 36°09' W 005°26'0 0.0
2018-Feb-24 15:58N 36°09' W 005°26'0 0.0
2018-Feb-24 15:28N 36°09' W 005°26'0 0.0
2018-Feb-24 15:00N 36°09' W 005°26'0 0.9
2018-Feb-24 14:30N 36°09' W 005°26'1 2.4
2018-Feb-24 14:00N 36°09' W 005°24'2 2.9
2018-Feb-24 13:30N 36°07' W 005°24'1 3.1
2018-Feb-24 13:01N 36°06' W 005°24'5 9.0
2018-Feb-24 12:30N 36°04' W 005°18'5 9.4
2018-Feb-24 12:00N 36°05' W 005°13'1 1.8
2018-Feb-24 11:25N 36°06' W 005°12'511.6
2018-Feb-24 11:01N 36°02' W 005°13'612.9
2018-Feb-24 10:30N 36°01' W 005°21'4 8.8
2018-Feb-24 10:00N 35°59' W 005°26'57115.7
2018-Feb-22 21:35N 29°04' W 013°11'117.5
2018-Feb-22 21:30N 29°03' W 013°12'917.6
2018-Feb-22 21:00N 28°55' W 013°16'917.7
2018-Feb-22 20:30N 28°47' W 013°21'917.7
2018-Feb-22 19:59N 28°38' W 013°25'3417.9
2018-Feb-22 18:05N 28°08' W 013°41'  
2018-Feb-17 06:00S 06°18' W 031°24'42317.6 120 / 141011.5 2.2 23.121.2
2018-Feb-16 06:00S 12°42' W 034°24'26417.6 110 / 141014.627.0 26.120.7
2018-Feb-15 15:00S 16°42' W 036°18'16218.0 070 / 191017.427.0 27.118.9
2018-Feb-15 06:00S 19°00' W 037°48'   100 / 141016.110.8 25.619.5
Track history (hours):
 
Tides and Currents Weather Stations Pressure Air Temp Water Temp Dewpoint Dewpoint Depression Visibility Wind Speed Wind Dir Waves Ship Positions

Cap San Raphael

Last reported at 2018-Feb-25 05:28 UTC. Time now 2018-Feb-25 05:55 UTC.
Position N 36°09' W 005°26'.

Length 333 m; draft 13 m.

Type: Ship (hazmat cat A). MMSI: 636092548.

Date/timePositionNaut miles runAvg speedWind from/ knotsBaromVisibWave heightAir tempDewpointWater temp
2018-Feb-25 05:28N 36°09' W 005°26'0 0.0
2018-Feb-25 04:58N 36°09' W 005°26'0 0.0
2018-Feb-25 04:28N 36°09' W 005°26'0 0.0
2018-Feb-25 03:58N 36°09' W 005°26'0 0.0
2018-Feb-25 03:28N 36°09' W 005°26'0 0.0
2018-Feb-25 02:58N 36°09' W 005°26'0 0.0
2018-Feb-25 02:25N 36°09' W 005°26'0 0.0
2018-Feb-25 01:58N 36°09' W 005°26'0 0.0
2018-Feb-25 01:28N 36°09' W 005°26'0 0.0
2018-Feb-25 00:58N 36°09' W 005°26'0 0.0
2018-Feb-25 00:28N 36°09' W 005°26'0 0.0
2018-Feb-24 23:58N 36°09' W 005°26'0 0.0
2018-Feb-24 23:25N 36°09' W 005°26'0 0.0
2018-Feb-24 22:58N 36°09' W 005°26'0 0.0
2018-Feb-24 22:28N 36°09' W 005°26'0 0.0
2018-Feb-24 21:58N 36°09' W 005°26'0 0.0
2018-Feb-24 21:28N 36°09' W 005°26'0 0.0
2018-Feb-24 20:58N 36°09' W 005°26'0 0.0
2018-Feb-24 20:28N 36°09' W 005°26'0 0.0
2018-Feb-24 19:58N 36°09' W 005°26'0 0.0
2018-Feb-24 19:28N 36°09' W 005°26'0 0.0
2018-Feb-24 18:58N 36°09' W 005°26'0 0.0
2018-Feb-24 18:28N 36°09' W 005°26'0 0.0
2018-Feb-24 17:58N 36°09' W 005°26'0 0.0
2018-Feb-24 17:28N 36°09' W 005°26'0 0.0
2018-Feb-24 16:58N 36°09' W 005°26'0 0.0
2018-Feb-24 16:28N 36°09' W 005°26'0 0.0
2018-Feb-24 15:58N 36°09' W 005°26'0 0.0
2018-Feb-24 15:28N 36°09' W 005°26'0 0.0
2018-Feb-24 15:00N 36°09' W 005°26'0 0.9
2018-Feb-24 14:30N 36°09' W 005°26'1 2.4
2018-Feb-24 14:00N 36°09' W 005°24'2 2.9
2018-Feb-24 13:30N 36°07' W 005°24'1 3.1
2018-Feb-24 13:01N 36°06' W 005°24'5 9.0
2018-Feb-24 12:30N 36°04' W 005°18'5 9.4
2018-Feb-24 12:00N 36°05' W 005°13'1 1.8
2018-Feb-24 11:25N 36°06' W 005°12'511.6
2018-Feb-24 11:01N 36°02' W 005°13'612.9
2018-Feb-24 10:30N 36°01' W 005°21'4 8.8
2018-Feb-24 10:00N 35°59' W 005°26'57115.7
2018-Feb-22 21:35N 29°04' W 013°11'117.5
2018-Feb-22 21:30N 29°03' W 013°12'917.6
2018-Feb-22 21:00N 28°55' W 013°16'917.7
2018-Feb-22 20:30N 28°47' W 013°21'917.7
2018-Feb-22 19:59N 28°38' W 013°25'3417.9
2018-Feb-22 18:05N 28°08' W 013°41'  
2018-Feb-17 06:00S 06°18' W 031°24'42317.6 120 / 141011.5 2.2 23.121.2
2018-Feb-16 06:00S 12°42' W 034°24'26417.6 110 / 141014.627.0 26.120.7
2018-Feb-15 15:00S 16°42' W 036°18'16218.0 070 / 191017.427.0 27.118.9
2018-Feb-15 06:00S 19°00' W 037°48'   100 / 141016.110.8 25.619.5

Dump ship's entire track history